EST,Max TemperatureF,Mean TemperatureF,Min TemperatureF,Max Dew PointF,MeanDew PointF,Min DewpointF,Max Humidity, Mean Humidity, Min Humidity, Max Sea Level PressureIn, Mean Sea Level PressureIn, Min Sea Level PressureIn, Max VisibilityMiles, Mean VisibilityMiles, Min VisibilityMiles, Max Wind SpeedMPH, Mean Wind SpeedMPH, Max Gust SpeedMPH,PrecipitationIn, CloudCover, Events, WindDirDegrees
2013-1-1,32,22,12,29,19,8,90,83,75,30.17,30.11,30.04,10,7,1,10,6,9,0.00,4,,317
2013-1-2,19,9,-1,7,2,-6,84,68,39,30.25,30.20,30.15,10,10,10,6,3,,0.00,0,,246
2013-1-3,29,20,11,24,12,-3,79,68,49,30.29,30.22,30.17,10,10,7,13,7,18,0.00,5,,237
2013-1-4,28,22,16,18,14,9,81,71,62,30.33,30.29,30.28,10,10,10,20,9,24,0.00,0,,240
2013-1-5,37,26,14,29,22,10,89,79,57,30.31,30.23,30.11,10,8,1,15,8,20,0.00,4,Snow,201
2013-1-6,35,30,25,30,24,19,83,77,74,30.36,30.13,29.99,10,9,2,17,11,24,0.00,8,,257
2013-1-7,36,24,11,27,18,7,90,77,59,30.43,30.33,30.19,10,7,0,16,5,20,0.00,0,Fog,194
2013-1-8,41,30,19,27,23,15,87,70,54,30.26,30.21,30.18,10,9,5,13,7,,0.00,0,,175
2013-1-9,44,37,30,36,31,26,86,73,61,30.50,30.32,30.16,10,10,7,16,10,21,0.03,3,Rain,238
2013-1-10,44,36,27,40,30,24,89,78,56,30.51,30.33,30.02,10,9,4,15,5,18,0.09,4,Rain,112
2013-1-11,58,52,45,51,47,40,90,80,64,30.02,29.89,29.81,10,9,5,21,12,29,0.67,4,Rain,191
2013-1-12,62,54,46,53,49,42,91,79,64,29.99,29.90,29.73,10,8,1,14,9,18,1.28,2,Rain-Thunderstorm,196
2013-1-13,54,38,22,52,32,17,91,87,80,30.21,29.94,29.70,10,7,1,22,10,31,1.14,8,Rain,322
2013-1-14,22,19,16,16,14,10,83,78,74,30.44,30.37,30.22,10,9,4,12,7,17,0.00,6,Snow,337
2013-1-15,29,24,19,20,17,15,84,74,61,30.39,30.29,30.09,10,10,7,12,8,16,0.00,3,,52
2013-1-16,33,28,22,23,21,18,87,73,55,30.09,30.03,29.95,10,9,5,15,5,20,0.00,3,,247
2013-1-17,36,30,23,28,22,16,85,70,55,30.40,30.22,30.08,10,10,7,16,7,21,0.00,3,,305
2013-1-18,39,29,19,22,17,15,84,62,40,30.47,30.34,30.11,10,10,10,24,8,33,0.00,0,,204
2013-1-19,50,44,37,33,28,21,68,55,48,30.13,29.99,29.86,10,10,10,24,19,33,0.00,0,,219
2013-1-20,42,31,20,32,13,8,68,58,50,30.27,30.16,29.91,10,10,10,23,14,33,0.00,3,,292
2013-1-21,21,14,7,12,4,-5,79,62,47,30.26,30.17,30.13,10,9,1,25,12,37,0.00,5,Snow,285
2013-1-22,15,9,3,-2,-3,-5,70,57,42,30.38,30.31,30.26,10,10,4,16,10,22,0.00,2,,284
2013-1-23,22,16,10,12,3,-2,66,54,41,30.33,30.22,30.09,10,10,10,16,5,23,0.00,7,,247
2013-1-24,22,16,11,10,5,-2,81,59,34,30.59,30.44,30.18,10,10,5,16,10,22,0.00,1,Snow,33
2013-1-25,26,22,18,18,12,3,83,67,47,30.37,30.13,30.03,10,9,1,13,9,18,0.02,5,Snow,193
2013-1-26,29,22,16,16,13,10,79,69,56,30.42,30.30,30.10,10,10,10,9,5,,0.00,2,,339
2013-1-27,37,28,19,34,21,13,89,75,61,30.40,30.28,30.05,10,8,2,15,7,21,0.21,5,Rain,135
2013-1-28,52,44,37,50,45,34,91,88,83,30.08,30.00,29.96,10,4,0,20,12,26,0.13,8,Fog-Rain,203
2013-1-29,64,58,53,55,53,50,92,82,73,29.97,29.77,29.41,10,8,0,25,15,33,0.00,8,Thunderstorm,187
2013-1-30,64,46,27,56,41,21,90,84,74,29.62,29.40,29.25,10,8,2,31,16,56,0.85,8,Rain-Snow-Thunderstorm,235
2013-1-31,26,18,9,21,13,-1,82,71,63,30.11,29.86,29.63,10,8,0,32,21,44,0.00,8,Snow,276